sensor_id;sensor_type;location;lat;lon;timestamp;P1;durP1;ratioP1;P2;durP2;ratioP2
21979;SDS011;11154;48.558;9.234;2023-07-29T00:01:53;1.42;;;0.93;;
21979;SDS011;11154;48.558;9.234;2023-07-29T00:03:55;3.75;;;1.20;;
21979;SDS011;11154;48.558;9.234;2023-07-29T00:05:56;2.60;;;1.10;;
21979;SDS011;11154;48.558;9.234;2023-07-29T00:07:58;1.88;;;0.88;;
21979;SDS011;11154;48.558;9.234;2023-07-29T00:09:59;1.05;;;0.73;;
21979;SDS011;11154;48.558;9.234;2023-07-29T00:12:01;1.00;;;0.65;;
21979;SDS011;11154;48.558;9.234;2023-07-29T00:14:04;1.10;;;0.52;;
21979;SDS011;11154;48.558;9.234;2023-07-29T00:16:06;1.42;;;0.88;;
21979;SDS011;11154;48.558;9.234;2023-07-29T00:18:08;0.90;;;0.70;;
21979;SDS011;11154;48.558;9.234;2023-07-29T00:20:09;2.58;;;0.50;;
21979;SDS011;11154;48.558;9.234;2023-07-29T00:22:11;0.80;;;0.80;;
21979;SDS011;11154;48.558;9.234;2023-07-29T00:24:13;1.30;;;0.75;;
21979;SDS011;11154;48.558;9.234;2023-07-29T00:26:14;1.15;;;0.95;;
21979;SDS011;11154;48.558;9.234;2023-07-29T00:28:16;1.92;;;1.48;;
21979;SDS011;11154;48.558;9.234;2023-07-29T00:30:19;1.73;;;1.30;;
21979;SDS011;11154;48.558;9.234;2023-07-29T00:32:21;1.52;;;1.42;;
21979;SDS011;11154;48.558;9.234;2023-07-29T00:34:22;3.17;;;2.00;;
21979;SDS011;11154;48.558;9.234;2023-07-29T00:36:24;1.95;;;1.50;;
21979;SDS011;11154;48.558;9.234;2023-07-29T00:38:26;2.25;;;1.58;;
21979;SDS011;11154;48.558;9.234;2023-07-29T00:40:27;3.33;;;1.60;;
21979;SDS011;11154;48.558;9.234;2023-07-29T00:42:30;2.10;;;1.60;;
21979;SDS011;11154;48.558;9.234;2023-07-29T00:44:31;1.83;;;1.55;;
21979;SDS011;11154;48.558;9.234;2023-07-29T00:46:34;1.23;;;0.90;;
21979;SDS011;11154;48.558;9.234;2023-07-29T00:48:38;1.75;;;1.20;;
21979;SDS011;11154;48.558;9.234;2023-07-29T00:50:40;1.10;;;1.00;;
21979;SDS011;11154;48.558;9.234;2023-07-29T00:52:42;1.55;;;1.00;;
21979;SDS011;11154;48.558;9.234;2023-07-29T00:54:44;1.77;;;1.25;;
21979;SDS011;11154;48.558;9.234;2023-07-29T00:56:45;2.00;;;1.17;;
21979;SDS011;11154;48.558;9.234;2023-07-29T00:58:47;1.10;;;1.00;;
21979;SDS011;11154;48.558;9.234;2023-07-29T01:00:48;1.20;;;1.02;;
21979;SDS011;11154;48.558;9.234;2023-07-29T01:02:52;1.05;;;1.00;;
21979;SDS011;11154;48.558;9.234;2023-07-29T01:04:55;1.63;;;1.52;;
21979;SDS011;11154;48.558;9.234;2023-07-29T01:06:58;1.55;;;1.45;;
21979;SDS011;11154;48.558;9.234;2023-07-29T01:09:08;2.00;;;1.83;;
21979;SDS011;11154;48.558;9.234;2023-07-29T01:11:18;2.15;;;1.92;;
21979;SDS011;11154;48.558;9.234;2023-07-29T01:13:33;1.60;;;1.50;;
21979;SDS011;11154;48.558;9.234;2023-07-29T01:15:43;2.90;;;1.80;;
21979;SDS011;11154;48.558;9.234;2023-07-29T01:17:49;2.20;;;1.88;;
21979;SDS011;11154;48.558;9.234;2023-07-29T01:20:00;1.45;;;1.35;;
21979;SDS011;11154;48.558;9.234;2023-07-29T01:22:05;1.75;;;1.58;;
21979;SDS011;11154;48.558;9.234;2023-07-29T01:24:10;1.60;;;1.30;;
21979;SDS011;11154;48.558;9.234;2023-07-29T01:26:11;1.55;;;1.42;;
21979;SDS011;11154;48.558;9.234;2023-07-29T01:28:13;1.63;;;1.40;;
21979;SDS011;11154;48.558;9.234;2023-07-29T01:30:15;1.60;;;1.50;;
21979;SDS011;11154;48.558;9.234;2023-07-29T01:32:17;1.50;;;1.40;;
21979;SDS011;11154;48.558;9.234;2023-07-29T01:34:24;1.95;;;1.50;;
21979;SDS011;11154;48.558;9.234;2023-07-29T01:36:30;1.85;;;1.75;;
21979;SDS011;11154;48.558;9.234;2023-07-29T01:38:38;1.77;;;1.60;;
21979;SDS011;11154;48.558;9.234;2023-07-29T01:40:44;1.70;;;1.60;;
21979;SDS011;11154;48.558;9.234;2023-07-29T01:42:46;1.88;;;1.70;;
21979;SDS011;11154;48.558;9.234;2023-07-29T01:44:48;2.15;;;1.95;;
21979;SDS011;11154;48.558;9.234;2023-07-29T01:46:50;5.35;;;2.08;;
21979;SDS011;11154;48.558;9.234;2023-07-29T01:48:51;2.30;;;1.60;;
21979;SDS011;11154;48.558;9.234;2023-07-29T01:50:53;5.05;;;1.67;;
21979;SDS011;11154;48.558;9.234;2023-07-29T01:52:54;1.65;;;1.50;;
21979;SDS011;11154;48.558;9.234;2023-07-29T01:54:56;1.73;;;1.63;;
21979;SDS011;11154;48.558;9.234;2023-07-29T01:56:59;1.50;;;1.40;;
21979;SDS011;11154;48.558;9.234;2023-07-29T01:59:01;1.50;;;1.40;;
21979;SDS011;11154;48.558;9.234;2023-07-29T02:01:02;2.53;;;1.23;;
21979;SDS011;11154;48.558;9.234;2023-07-29T02:03:04;1.85;;;1.20;;
21979;SDS011;11154;48.558;9.234;2023-07-29T02:05:05;1.52;;;1.20;;
21979;SDS011;11154;48.558;9.234;2023-07-29T02:07:07;5.82;;;1.40;;
21979;SDS011;11154;48.558;9.234;2023-07-29T02:09:09;1.73;;;1.27;;
21979;SDS011;11154;48.558;9.234;2023-07-29T02:11:10;3.75;;;1.40;;
21979;SDS011;11154;48.558;9.234;2023-07-29T02:13:15;2.88;;;1.80;;
21979;SDS011;11154;48.558;9.234;2023-07-29T02:15:17;1.77;;;1.50;;
21979;SDS011;11154;48.558;9.234;2023-07-29T02:17:18;2.53;;;1.30;;
21979;SDS011;11154;48.558;9.234;2023-07-29T02:19:21;1.30;;;1.20;;
21979;SDS011;11154;48.558;9.234;2023-07-29T02:21:22;1.25;;;1.10;;
21979;SDS011;11154;48.558;9.234;2023-07-29T02:23:24;2.35;;;1.13;;
21979;SDS011;11154;48.558;9.234;2023-07-29T02:25:24;4.10;;;1.48;;
21979;SDS011;11154;48.558;9.234;2023-07-29T02:27:26;2.35;;;1.10;;
21979;SDS011;11154;48.558;9.234;2023-07-29T02:29:29;3.88;;;1.25;;
21979;SDS011;11154;48.558;9.234;2023-07-29T02:31:33;1.80;;;1.33;;
21979;SDS011;11154;48.558;9.234;2023-07-29T02:33:36;3.47;;;1.30;;
21979;SDS011;11154;48.558;9.234;2023-07-29T02:35:38;1.60;;;1.50;;
21979;SDS011;11154;48.558;9.234;2023-07-29T02:37:40;1.30;;;1.15;;
21979;SDS011;11154;48.558;9.234;2023-07-29T02:39:41;2.50;;;1.48;;
21979;SDS011;11154;48.558;9.234;2023-07-29T02:41:43;1.40;;;1.30;;
21979;SDS011;11154;48.558;9.234;2023-07-29T02:43:48;3.72;;;1.58;;
21979;SDS011;11154;48.558;9.234;2023-07-29T02:45:51;3.38;;;1.33;;
21979;SDS011;11154;48.558;9.234;2023-07-29T02:47:53;2.88;;;1.50;;
21979;SDS011;11154;48.558;9.234;2023-07-29T02:49:54;4.70;;;1.42;;
21979;SDS011;11154;48.558;9.234;2023-07-29T02:51:56;1.40;;;1.30;;
21979;SDS011;11154;48.558;9.234;2023-07-29T02:53:58;2.58;;;1.40;;
21979;SDS011;11154;48.558;9.234;2023-07-29T02:55:59;1.90;;;1.40;;
21979;SDS011;11154;48.558;9.234;2023-07-29T02:58:01;3.55;;;1.05;;
21979;SDS011;11154;48.558;9.234;2023-07-29T03:00:03;2.20;;;1.23;;
21979;SDS011;11154;48.558;9.234;2023-07-29T03:02:08;1.80;;;1.50;;
21979;SDS011;11154;48.558;9.234;2023-07-29T03:04:10;3.10;;;1.20;;
21979;SDS011;11154;48.558;9.234;2023-07-29T03:06:13;1.73;;;1.13;;
21979;SDS011;11154;48.558;9.234;2023-07-29T03:08:15;1.75;;;1.20;;
21979;SDS011;11154;48.558;9.234;2023-07-29T03:10:17;1.50;;;1.38;;
21979;SDS011;11154;48.558;9.234;2023-07-29T03:12:18;2.30;;;1.30;;
21979;SDS011;11154;48.558;9.234;2023-07-29T03:14:21;2.13;;;1.30;;
21979;SDS011;11154;48.558;9.234;2023-07-29T03:16:23;3.65;;;1.27;;
21979;SDS011;11154;48.558;9.234;2023-07-29T03:18:26;1.73;;;1.40;;
21979;SDS011;11154;48.558;9.234;2023-07-29T03:20:27;1.42;;;1.33;;
21979;SDS011;11154;48.558;9.234;2023-07-29T03:22:29;3.00;;;1.30;;
21979;SDS011;11154;48.558;9.234;2023-07-29T03:24:30;3.03;;;1.23;;
21979;SDS011;11154;48.558;9.234;2023-07-29T03:26:32;3.13;;;1.25;;
21979;SDS011;11154;48.558;9.234;2023-07-29T03:28:33;1.95;;;1.42;;
21979;SDS011;11154;48.558;9.234;2023-07-29T03:30:34;3.85;;;1.30;;
21979;SDS011;11154;48.558;9.234;2023-07-29T03:32:39;2.15;;;1.20;;
21979;SDS011;11154;48.558;9.234;2023-07-29T03:34:45;2.95;;;1.13;;
21979;SDS011;11154;48.558;9.234;2023-07-29T03:36:46;1.20;;;1.10;;
21979;SDS011;11154;48.558;9.234;2023-07-29T03:38:48;2.67;;;1.48;;
21979;SDS011;11154;48.558;9.234;2023-07-29T03:40:50;6.28;;;2.30;;
21979;SDS011;11154;48.558;9.234;2023-07-29T03:42:53;5.50;;;2.90;;
21979;SDS011;11154;48.558;9.234;2023-07-29T03:44:55;2.60;;;1.90;;
21979;SDS011;11154;48.558;9.234;2023-07-29T03:46:56;1.92;;;1.67;;
21979;SDS011;11154;48.558;9.234;2023-07-29T03:48:58;1.50;;;1.40;;
21979;SDS011;11154;48.558;9.234;2023-07-29T03:51:01;2.22;;;1.20;;
21979;SDS011;11154;48.558;9.234;2023-07-29T03:53:03;3.90;;;1.30;;
21979;SDS011;11154;48.558;9.234;2023-07-29T03:55:04;1.40;;;1.30;;
21979;SDS011;11154;48.558;9.234;2023-07-29T03:57:06;2.33;;;1.20;;
21979;SDS011;11154;48.558;9.234;2023-07-29T03:59:07;1.95;;;1.35;;
21979;SDS011;11154;48.558;9.234;2023-07-29T04:01:09;2.47;;;1.20;;
21979;SDS011;11154;48.558;9.234;2023-07-29T04:03:11;4.35;;;1.60;;
21979;SDS011;11154;48.558;9.234;2023-07-29T04:05:12;2.00;;;1.38;;
21979;SDS011;11154;48.558;9.234;2023-07-29T04:07:15;3.28;;;1.50;;
21979;SDS011;11154;48.558;9.234;2023-07-29T04:09:17;1.75;;;1.38;;
21979;SDS011;11154;48.558;9.234;2023-07-29T04:11:19;5.63;;;1.17;;
21979;SDS011;11154;48.558;9.234;2023-07-29T04:13:20;1.83;;;1.38;;
21979;SDS011;11154;48.558;9.234;2023-07-29T04:15:22;2.45;;;1.40;;
21979;SDS011;11154;48.558;9.234;2023-07-29T04:17:23;1.33;;;1.00;;
21979;SDS011;11154;48.558;9.234;2023-07-29T04:19:25;1.38;;;1.27;;
21979;SDS011;11154;48.558;9.234;2023-07-29T04:21:26;5.53;;;1.40;;
21979;SDS011;11154;48.558;9.234;2023-07-29T04:23:29;1.20;;;1.10;;
21979;SDS011;11154;48.558;9.234;2023-07-29T04:25:31;2.67;;;1.38;;
21979;SDS011;11154;48.558;9.234;2023-07-29T04:27:33;3.25;;;1.40;;
21979;SDS011;11154;48.558;9.234;2023-07-29T04:29:35;3.00;;;1.30;;
21979;SDS011;11154;48.558;9.234;2023-07-29T04:31:36;3.60;;;1.60;;
21979;SDS011;11154;48.558;9.234;2023-07-29T04:33:38;3.67;;;1.30;;
21979;SDS011;11154;48.558;9.234;2023-07-29T04:35:40;1.58;;;1.25;;
21979;SDS011;11154;48.558;9.234;2023-07-29T04:37:41;2.72;;;1.30;;
21979;SDS011;11154;48.558;9.234;2023-07-29T04:39:44;2.33;;;1.30;;
21979;SDS011;11154;48.558;9.234;2023-07-29T04:41:46;1.33;;;1.05;;
21979;SDS011;11154;48.558;9.234;2023-07-29T04:43:48;2.33;;;1.27;;
21979;SDS011;11154;48.558;9.234;2023-07-29T04:45:50;1.65;;;1.23;;
21979;SDS011;11154;48.558;9.234;2023-07-29T04:47:52;2.92;;;1.45;;
21979;SDS011;11154;48.558;9.234;2023-07-29T04:49:53;1.83;;;1.30;;
21979;SDS011;11154;48.558;9.234;2023-07-29T04:51:55;3.20;;;1.30;;
21979;SDS011;11154;48.558;9.234;2023-07-29T04:53:56;1.98;;;1.10;;
21979;SDS011;11154;48.558;9.234;2023-07-29T04:55:59;0.93;;;0.93;;
21979;SDS011;11154;48.558;9.234;2023-07-29T04:58:01;2.13;;;1.00;;
21979;SDS011;11154;48.558;9.234;2023-07-29T05:00:02;1.58;;;1.13;;
21979;SDS011;11154;48.558;9.234;2023-07-29T05:02:04;4.18;;;1.10;;
21979;SDS011;11154;48.558;9.234;2023-07-29T05:04:06;1.77;;;1.00;;
21979;SDS011;11154;48.558;9.234;2023-07-29T05:06:08;1.15;;;1.05;;
21979;SDS011;11154;48.558;9.234;2023-07-29T05:08:10;1.08;;;1.00;;
21979;SDS011;11154;48.558;9.234;2023-07-29T05:10:11;1.95;;;1.17;;
21979;SDS011;11154;48.558;9.234;2023-07-29T05:12:14;1.65;;;1.23;;
21979;SDS011;11154;48.558;9.234;2023-07-29T05:14:16;0.90;;;0.90;;
21979;SDS011;11154;48.558;9.234;2023-07-29T05:16:18;1.35;;;1.20;;
21979;SDS011;11154;48.558;9.234;2023-07-29T05:18:20;5.70;;;1.67;;
21979;SDS011;11154;48.558;9.234;2023-07-29T05:20:22;5.15;;;1.95;;
21979;SDS011;11154;48.558;9.234;2023-07-29T05:22:24;2.20;;;1.25;;
21979;SDS011;11154;48.558;9.234;2023-07-29T05:24:25;3.45;;;1.50;;
21979;SDS011;11154;48.558;9.234;2023-07-29T05:26:27;2.95;;;1.23;;
21979;SDS011;11154;48.558;9.234;2023-07-29T05:28:30;1.75;;;1.10;;
21979;SDS011;11154;48.558;9.234;2023-07-29T05:30:32;2.60;;;1.30;;
21979;SDS011;11154;48.558;9.234;2023-07-29T05:32:34;3.35;;;1.23;;
21979;SDS011;11154;48.558;9.234;2023-07-29T05:34:35;3.22;;;1.20;;
21979;SDS011;11154;48.558;9.234;2023-07-29T05:36:37;1.33;;;1.10;;
21979;SDS011;11154;48.558;9.234;2023-07-29T05:38:39;4.05;;;1.38;;
21979;SDS011;11154;48.558;9.234;2023-07-29T05:40:40;4.03;;;1.67;;
21979;SDS011;11154;48.558;9.234;2023-07-29T05:42:42;2.40;;;1.25;;
21979;SDS011;11154;48.558;9.234;2023-07-29T05:44:46;1.42;;;1.13;;
21979;SDS011;11154;48.558;9.234;2023-07-29T05:46:48;2.03;;;1.30;;
21979;SDS011;11154;48.558;9.234;2023-07-29T05:48:50;2.53;;;1.25;;
21979;SDS011;11154;48.558;9.234;2023-07-29T05:50:50;2.83;;;1.33;;
21979;SDS011;11154;48.558;9.234;2023-07-29T05:52:52;1.92;;;1.20;;
21979;SDS011;11154;48.558;9.234;2023-07-29T05:54:54;2.85;;;1.38;;
21979;SDS011;11154;48.558;9.234;2023-07-29T05:56:55;3.28;;;1.40;;
21979;SDS011;11154;48.558;9.234;2023-07-29T05:58:57;2.33;;;1.30;;
21979;SDS011;11154;48.558;9.234;2023-07-29T06:01:00;3.50;;;1.20;;
21979;SDS011;11154;48.558;9.234;2023-07-29T06:03:02;1.83;;;1.17;;
21979;SDS011;11154;48.558;9.234;2023-07-29T06:05:02;2.35;;;1.10;;
21979;SDS011;11154;48.558;9.234;2023-07-29T06:07:05;2.60;;;1.23;;
21979;SDS011;11154;48.558;9.234;2023-07-29T06:09:07;1.65;;;1.10;;
21979;SDS011;11154;48.558;9.234;2023-07-29T06:11:08;1.58;;;1.17;;
21979;SDS011;11154;48.558;9.234;2023-07-29T06:13:10;1.42;;;1.08;;
21979;SDS011;11154;48.558;9.234;2023-07-29T06:15:12;1.65;;;1.40;;
21979;SDS011;11154;48.558;9.234;2023-07-29T06:17:14;1.92;;;1.33;;
21979;SDS011;11154;48.558;9.234;2023-07-29T06:19:15;1.20;;;1.10;;
21979;SDS011;11154;48.558;9.234;2023-07-29T06:21:17;1.25;;;1.08;;
21979;SDS011;11154;48.558;9.234;2023-07-29T06:23:20;1.75;;;1.20;;
21979;SDS011;11154;48.558;9.234;2023-07-29T06:25:21;2.00;;;1.15;;
21979;SDS011;11154;48.558;9.234;2023-07-29T06:27:22;1.38;;;0.98;;
21979;SDS011;11154;48.558;9.234;2023-07-29T06:29:25;2.00;;;1.02;;
21979;SDS011;11154;48.558;9.234;2023-07-29T06:31:27;1.48;;;1.20;;
21979;SDS011;11154;48.558;9.234;2023-07-29T06:33:31;1.98;;;1.30;;
21979;SDS011;11154;48.558;9.234;2023-07-29T06:35:32;2.97;;;1.40;;
21979;SDS011;11154;48.558;9.234;2023-07-29T06:37:33;2.25;;;1.15;;
21979;SDS011;11154;48.558;9.234;2023-07-29T06:39:34;1.83;;;1.15;;
21979;SDS011;11154;48.558;9.234;2023-07-29T06:41:36;2.45;;;1.20;;
21979;SDS011;11154;48.558;9.234;2023-07-29T06:43:38;1.58;;;1.08;;
21979;SDS011;11154;48.558;9.234;2023-07-29T06:45:39;1.25;;;1.15;;
21979;SDS011;11154;48.558;9.234;2023-07-29T06:47:41;2.60;;;1.30;;
21979;SDS011;11154;48.558;9.234;2023-07-29T06:49:45;3.08;;;1.20;;
21979;SDS011;11154;48.558;9.234;2023-07-29T06:51:47;2.97;;;1.40;;
21979;SDS011;11154;48.558;9.234;2023-07-29T06:53:48;2.25;;;1.20;;
21979;SDS011;11154;48.558;9.234;2023-07-29T06:55:50;2.90;;;1.38;;
21979;SDS011;11154;48.558;9.234;2023-07-29T06:57:52;1.10;;;1.00;;
21979;SDS011;11154;48.558;9.234;2023-07-29T06:59:54;1.85;;;1.20;;
21979;SDS011;11154;48.558;9.234;2023-07-29T07:01:56;3.03;;;1.20;;
21979;SDS011;11154;48.558;9.234;2023-07-29T07:03:59;2.72;;;1.40;;
21979;SDS011;11154;48.558;9.234;2023-07-29T07:06:03;5.43;;;1.90;;
21979;SDS011;11154;48.558;9.234;2023-07-29T07:08:05;4.00;;;1.58;;
21979;SDS011;11154;48.558;9.234;2023-07-29T07:10:07;2.72;;;1.70;;
21979;SDS011;11154;48.558;9.234;2023-07-29T07:12:10;5.25;;;1.77;;
21979;SDS011;11154;48.558;9.234;2023-07-29T07:14:12;4.18;;;1.70;;
21979;SDS011;11154;48.558;9.234;2023-07-29T07:16:14;5.03;;;1.63;;
21979;SDS011;11154;48.558;9.234;2023-07-29T07:18:15;1.92;;;1.63;;
21979;SDS011;11154;48.558;9.234;2023-07-29T07:20:17;3.22;;;1.60;;
21979;SDS011;11154;48.558;9.234;2023-07-29T07:22:20;2.65;;;1.80;;
21979;SDS011;11154;48.558;9.234;2023-07-29T07:24:22;2.75;;;1.65;;
21979;SDS011;11154;48.558;9.234;2023-07-29T07:26:24;3.33;;;1.70;;
21979;SDS011;11154;48.558;9.234;2023-07-29T07:28:25;3.28;;;1.60;;
21979;SDS011;11154;48.558;9.234;2023-07-29T07:30:27;1.80;;;1.48;;
21979;SDS011;11154;48.558;9.234;2023-07-29T07:32:28;3.42;;;1.88;;
21979;SDS011;11154;48.558;9.234;2023-07-29T07:34:30;3.28;;;1.58;;
21979;SDS011;11154;48.558;9.234;2023-07-29T07:36:33;2.65;;;1.58;;
21979;SDS011;11154;48.558;9.234;2023-07-29T07:38:36;2.13;;;1.70;;
21979;SDS011;11154;48.558;9.234;2023-07-29T07:40:38;1.80;;;1.67;;
21979;SDS011;11154;48.558;9.234;2023-07-29T07:42:39;4.20;;;1.75;;
21979;SDS011;11154;48.558;9.234;2023-07-29T07:44:41;5.13;;;1.92;;
21979;SDS011;11154;48.558;9.234;2023-07-29T07:46:42;4.55;;;2.15;;
21979;SDS011;11154;48.558;9.234;2023-07-29T07:48:44;2.08;;;1.60;;
21979;SDS011;11154;48.558;9.234;2023-07-29T07:50:45;2.33;;;1.60;;
21979;SDS011;11154;48.558;9.234;2023-07-29T07:52:47;2.45;;;1.70;;
21979;SDS011;11154;48.558;9.234;2023-07-29T07:54:52;2.85;;;1.90;;
21979;SDS011;11154;48.558;9.234;2023-07-29T07:56:53;1.85;;;1.60;;
21979;SDS011;11154;48.558;9.234;2023-07-29T07:58:55;5.43;;;1.98;;
21979;SDS011;11154;48.558;9.234;2023-07-29T08:01:00;2.83;;;1.63;;
21979;SDS011;11154;48.558;9.234;2023-07-29T08:03:03;2.78;;;2.00;;
21979;SDS011;11154;48.558;9.234;2023-07-29T08:05:05;3.58;;;1.80;;
21979;SDS011;11154;48.558;9.234;2023-07-29T08:07:07;2.03;;;1.75;;
21979;SDS011;11154;48.558;9.234;2023-07-29T08:09:08;2.47;;;1.58;;
21979;SDS011;11154;48.558;9.234;2023-07-29T08:11:11;3.38;;;1.90;;
21979;SDS011;11154;48.558;9.234;2023-07-29T08:13:13;5.93;;;1.95;;
21979;SDS011;11154;48.558;9.234;2023-07-29T08:15:14;4.32;;;1.98;;
21979;SDS011;11154;48.558;9.234;2023-07-29T08:17:16;3.25;;;2.03;;
21979;SDS011;11154;48.558;9.234;2023-07-29T08:19:17;3.53;;;1.40;;
21979;SDS011;11154;48.558;9.234;2023-07-29T08:21:19;1.88;;;1.73;;
21979;SDS011;11154;48.558;9.234;2023-07-29T08:23:21;3.15;;;2.00;;
21979;SDS011;11154;48.558;9.234;2023-07-29T08:25:23;1.92;;;1.67;;
21979;SDS011;11154;48.558;9.234;2023-07-29T08:27:26;2.40;;;1.58;;
21979;SDS011;11154;48.558;9.234;2023-07-29T08:29:27;3.13;;;1.60;;
21979;SDS011;11154;48.558;9.234;2023-07-29T08:31:29;1.88;;;1.60;;
21979;SDS011;11154;48.558;9.234;2023-07-29T08:33:33;4.22;;;1.73;;
21979;SDS011;11154;48.558;9.234;2023-07-29T08:35:35;3.15;;;1.40;;
21979;SDS011;11154;48.558;9.234;2023-07-29T08:37:36;3.47;;;1.45;;
21979;SDS011;11154;48.558;9.234;2023-07-29T08:39:38;2.67;;;1.45;;
21979;SDS011;11154;48.558;9.234;2023-07-29T08:41:41;1.80;;;1.52;;
21979;SDS011;11154;48.558;9.234;2023-07-29T08:43:52;2.72;;;1.40;;
21979;SDS011;11154;48.558;9.234;2023-07-29T08:46:07;2.63;;;1.90;;
21979;SDS011;11154;48.558;9.234;2023-07-29T08:48:09;3.75;;;1.40;;
21979;SDS011;11154;48.558;9.234;2023-07-29T08:50:12;2.05;;;1.33;;
21979;SDS011;11154;48.558;9.234;2023-07-29T08:52:15;2.13;;;1.30;;
21979;SDS011;11154;48.558;9.234;2023-07-29T08:54:17;1.58;;;1.40;;
21979;SDS011;11154;48.558;9.234;2023-07-29T08:56:20;2.20;;;1.52;;
21979;SDS011;11154;48.558;9.234;2023-07-29T08:58:21;2.05;;;1.30;;
21979;SDS011;11154;48.558;9.234;2023-07-29T09:00:24;1.55;;;1.40;;
21979;SDS011;11154;48.558;9.234;2023-07-29T09:02:26;2.75;;;1.50;;
21979;SDS011;11154;48.558;9.234;2023-07-29T09:04:28;1.85;;;1.40;;
21979;SDS011;11154;48.558;9.234;2023-07-29T09:06:29;3.15;;;1.58;;
21979;SDS011;11154;48.558;9.234;2023-07-29T09:08:32;1.90;;;1.70;;
21979;SDS011;11154;48.558;9.234;2023-07-29T09:10:35;3.95;;;1.98;;
21979;SDS011;11154;48.558;9.234;2023-07-29T09:12:37;2.08;;;1.75;;
21979;SDS011;11154;48.558;9.234;2023-07-29T09:14:39;2.10;;;1.50;;
21979;SDS011;11154;48.558;9.234;2023-07-29T09:16:42;3.65;;;1.85;;
21979;SDS011;11154;48.558;9.234;2023-07-29T09:18:44;2.15;;;1.55;;
21979;SDS011;11154;48.558;9.234;2023-07-29T09:20:50;1.83;;;1.60;;
21979;SDS011;11154;48.558;9.234;2023-07-29T09:22:51;3.08;;;1.50;;
21979;SDS011;11154;48.558;9.234;2023-07-29T09:24:52;1.38;;;1.27;;
21979;SDS011;11154;48.558;9.234;2023-07-29T09:26:54;3.53;;;1.75;;
21979;SDS011;11154;48.558;9.234;2023-07-29T09:28:56;2.50;;;1.52;;
21979;SDS011;11154;48.558;9.234;2023-07-29T09:30:59;2.42;;;1.60;;
21979;SDS011;11154;48.558;9.234;2023-07-29T09:33:02;5.10;;;1.95;;
21979;SDS011;11154;48.558;9.234;2023-07-29T09:35:04;2.17;;;1.83;;
21979;SDS011;11154;48.558;9.234;2023-07-29T09:37:15;2.33;;;1.70;;
21979;SDS011;11154;48.558;9.234;2023-07-29T09:39:17;2.38;;;1.75;;
21979;SDS011;11154;48.558;9.234;2023-07-29T09:41:19;4.72;;;1.67;;
21979;SDS011;11154;48.558;9.234;2023-07-29T09:43:24;3.45;;;1.90;;
21979;SDS011;11154;48.558;9.234;2023-07-29T09:45:26;2.67;;;1.98;;
21979;SDS011;11154;48.558;9.234;2023-07-29T09:47:28;2.92;;;1.70;;
21979;SDS011;11154;48.558;9.234;2023-07-29T09:49:31;2.58;;;2.08;;
21979;SDS011;11154;48.558;9.234;2023-07-29T09:51:37;3.30;;;1.88;;
21979;SDS011;11154;48.558;9.234;2023-07-29T09:53:40;2.85;;;1.90;;
21979;SDS011;11154;48.558;9.234;2023-07-29T09:55:46;2.78;;;1.88;;
21979;SDS011;11154;48.558;9.234;2023-07-29T09:57:47;2.28;;;1.83;;
21979;SDS011;11154;48.558;9.234;2023-07-29T09:59:55;3.90;;;1.85;;
21979;SDS011;11154;48.558;9.234;2023-07-29T10:01:57;3.38;;;1.92;;
21979;SDS011;11154;48.558;9.234;2023-07-29T10:03:59;2.88;;;1.70;;
21979;SDS011;11154;48.558;9.234;2023-07-29T10:06:03;3.10;;;2.13;;
21979;SDS011;11154;48.558;9.234;2023-07-29T10:08:06;3.13;;;1.75;;
21979;SDS011;11154;48.558;9.234;2023-07-29T10:10:08;4.07;;;1.63;;
21979;SDS011;11154;48.558;9.234;2023-07-29T10:12:10;2.50;;;1.75;;
21979;SDS011;11154;48.558;9.234;2023-07-29T10:14:12;3.90;;;1.70;;
21979;SDS011;11154;48.558;9.234;2023-07-29T10:16:14;2.67;;;1.80;;
21979;SDS011;11154;48.558;9.234;2023-07-29T10:18:16;2.88;;;1.88;;
21979;SDS011;11154;48.558;9.234;2023-07-29T10:20:17;1.95;;;1.80;;
21979;SDS011;11154;48.558;9.234;2023-07-29T10:22:20;2.25;;;1.77;;
21979;SDS011;11154;48.558;9.234;2023-07-29T10:24:25;2.38;;;1.75;;
21979;SDS011;11154;48.558;9.234;2023-07-29T10:26:31;2.33;;;1.70;;
21979;SDS011;11154;48.558;9.234;2023-07-29T10:28:34;2.38;;;1.80;;
21979;SDS011;11154;48.558;9.234;2023-07-29T10:30:41;2.53;;;1.80;;
21979;SDS011;11154;48.558;9.234;2023-07-29T10:32:43;1.88;;;1.58;;
21979;SDS011;11154;48.558;9.234;2023-07-29T10:34:44;2.22;;;1.50;;
21979;SDS011;11154;48.558;9.234;2023-07-29T10:36:46;2.42;;;1.35;;
21979;SDS011;11154;48.558;9.234;2023-07-29T10:38:51;2.40;;;1.63;;
21979;SDS011;11154;48.558;9.234;2023-07-29T10:40:53;2.47;;;2.03;;
21979;SDS011;11154;48.558;9.234;2023-07-29T10:43:01;3.75;;;1.60;;
21979;SDS011;11154;48.558;9.234;2023-07-29T10:45:19;1.42;;;1.30;;
21979;SDS011;11154;48.558;9.234;2023-07-29T10:47:23;3.80;;;1.52;;
21979;SDS011;11154;48.558;9.234;2023-07-29T10:49:25;3.45;;;1.75;;
21979;SDS011;11154;48.558;9.234;2023-07-29T10:51:35;1.85;;;1.60;;
21979;SDS011;11154;48.558;9.234;2023-07-29T10:53:37;2.00;;;1.58;;
21979;SDS011;11154;48.558;9.234;2023-07-29T10:55:39;1.90;;;1.63;;
21979;SDS011;11154;48.558;9.234;2023-07-29T10:57:42;2.50;;;1.50;;
21979;SDS011;11154;48.558;9.234;2023-07-29T10:59:53;2.28;;;1.73;;
21979;SDS011;11154;48.558;9.234;2023-07-29T11:01:56;1.98;;;1.42;;
21979;SDS011;11154;48.558;9.234;2023-07-29T11:06:27;2.05;;;1.67;;
21979;SDS011;11154;48.558;9.234;2023-07-29T11:08:28;1.92;;;1.70;;
21979;SDS011;11154;48.558;9.234;2023-07-29T11:10:31;2.20;;;1.65;;
21979;SDS011;11154;48.558;9.234;2023-07-29T11:12:44;1.83;;;1.65;;
21979;SDS011;11154;48.558;9.234;2023-07-29T11:14:47;2.75;;;1.85;;
21979;SDS011;11154;48.558;9.234;2023-07-29T11:16:48;2.08;;;1.80;;
21979;SDS011;11154;48.558;9.234;2023-07-29T11:18:50;1.60;;;1.50;;
21979;SDS011;11154;48.558;9.234;2023-07-29T11:20:53;1.83;;;1.60;;
21979;SDS011;11154;48.558;9.234;2023-07-29T11:22:55;9.48;;;1.70;;
21979;SDS011;11154;48.558;9.234;2023-07-29T11:24:58;5.20;;;2.03;;
21979;SDS011;11154;48.558;9.234;2023-07-29T11:27:00;2.65;;;1.52;;
21979;SDS011;11154;48.558;9.234;2023-07-29T11:29:01;2.72;;;1.50;;
21979;SDS011;11154;48.558;9.234;2023-07-29T11:31:03;2.80;;;1.73;;
21979;SDS011;11154;48.558;9.234;2023-07-29T11:33:05;3.35;;;1.70;;
21979;SDS011;11154;48.558;9.234;2023-07-29T11:35:06;2.97;;;1.67;;
21979;SDS011;11154;48.558;9.234;2023-07-29T11:37:10;1.60;;;1.40;;
21979;SDS011;11154;48.558;9.234;2023-07-29T11:39:12;2.28;;;1.60;;
21979;SDS011;11154;48.558;9.234;2023-07-29T11:41:18;1.63;;;1.52;;
21979;SDS011;11154;48.558;9.234;2023-07-29T11:43:23;1.75;;;1.65;;
21979;SDS011;11154;48.558;9.234;2023-07-29T11:45:24;6.55;;;1.70;;
21979;SDS011;11154;48.558;9.234;2023-07-29T11:47:26;3.83;;;2.08;;
21979;SDS011;11154;48.558;9.234;2023-07-29T11:49:27;2.55;;;1.60;;
21979;SDS011;11154;48.558;9.234;2023-07-29T11:51:29;1.80;;;1.50;;
21979;SDS011;11154;48.558;9.234;2023-07-29T11:53:30;1.80;;;1.48;;
21979;SDS011;11154;48.558;9.234;2023-07-29T11:55:33;1.60;;;1.40;;
21979;SDS011;11154;48.558;9.234;2023-07-29T11:57:35;2.28;;;1.73;;
21979;SDS011;11154;48.558;9.234;2023-07-29T11:59:39;2.22;;;1.88;;
21979;SDS011;11154;48.558;9.234;2023-07-29T12:01:40;2.15;;;1.58;;
21979;SDS011;11154;48.558;9.234;2023-07-29T12:03:42;2.53;;;1.63;;
21979;SDS011;11154;48.558;9.234;2023-07-29T12:05:44;2.63;;;1.48;;
21979;SDS011;11154;48.558;9.234;2023-07-29T12:07:46;2.22;;;1.30;;
21979;SDS011;11154;48.558;9.234;2023-07-29T12:09:48;2.40;;;1.38;;
21979;SDS011;11154;48.558;9.234;2023-07-29T12:11:51;2.08;;;1.58;;
21979;SDS011;11154;48.558;9.234;2023-07-29T12:13:53;1.50;;;1.30;;
21979;SDS011;11154;48.558;9.234;2023-07-29T12:16:01;2.38;;;1.52;;
21979;SDS011;11154;48.558;9.234;2023-07-29T12:18:04;4.28;;;1.77;;
21979;SDS011;11154;48.558;9.234;2023-07-29T12:20:07;2.85;;;1.40;;
21979;SDS011;11154;48.558;9.234;2023-07-29T12:22:10;3.00;;;1.80;;